Nuussuaq

KL  EN  DA
ASIAQ
Weather Now GREENLAND SURVEY
Updated [WGT/WGST] Temperature [°C] Wind [m/s] Air pressure [hPa] Relative humidity [%] Precipitation [mm]
Present Wind chill Speed Max
25.02 08:00-16,5-20,61,5 ⇓2,6101480n/a
25.02 07:00-16,5-22,72,6 ⇘4,6101482n/a
25.02 06:00-14,8-19,92,1 ⇐3,6101462n/a
25.02 05:00-15,2-20,32,1 ⇙3,1101455n/a
25.02 04:00-15,7-19,71,5 ⇙2,1101356n/a
25.02 03:00-15,8-21,92,6 ⇙3,6101361n/a
25.02 02:00-16,0-20,01,5 ⇙2,1101358n/a
25.02 01:00-16,7-24,33,6 ⇓3,6101275n/a
25.02 00:00-16,8-23,12,6 ⇓3,6101277n/a
24.02 23:00-16,6-23,63,1 ⇘4,6101281n/a
24.02 22:00-16,7-24,33,6 ⇘5,1101182n/a
24.02 21:00-17,1-21,31,5 ⇓2,6101181n/a
24.02 20:00-16,7-23,73,1 ⇒4,1101083n/a
24.02 19:00-16,4-22,62,6 ⇒4,1100983n/a
24.02 18:00-16,0-24,54,6 ⇒5,7100884n/a
24.02 17:00-15,9-24,44,6 ⇒6,2100784n/a
24.02 16:00-15,4-23,34,1 ⇒6,2100683n/a
24.02 15:00-15,3-23,24,1 ⇒6,2100584n/a
24.02 14:00-15,1-22,43,6 ⇒5,1100479n/a
24.02 13:00-15,0-22,33,6 ⇒4,6100379n/a
24.02 12:00-15,0-23,34,6 ⇒6,2100377n/a
24.02 11:00-14,7-21,93,6 ⇒4,6100272n/a
24.02 10:00-14,6-19,62,1 ⇗3,6100172n/a
24.02 09:00-14,7-20,62,6 ⇖5,7100174n/a
24.02 08:00-14,4-22,64,6 ⇐6,7100067n/a
Position: (70.656111111,-54.6)

[Back]